Anglesea, New Jersey
Current Conditions -  °F | °C
As of 4:55 PM on Wednesday 26 Nov 2014 (Local Time) from KWWD Reporting Station
Overcast Overcast  
Wind Chill: 32°   Ceiling: 800
Heat Index: 39°   Visibility: 2.5mi
Dew Point: 34°   Wind: 13mph
Humidity: 81%   Direction: 330°NNW
Pressure: 29.75"   Gusts: 18mph
Location:  38.9808°N, 74.8281°W
Report Text: KWWD 262155Z AUTO 33011G16KT 310V010 2 1/2SM BKN008 OVC013 04/01 A2975 RMK AO1 P0003
Loading
Personal Weather Stations






























Interactive Weather Map New forecast layout! Learn more

10-Day Weather Forecast

Advertisements
Track Severe Weather on mobile